Time;durP1;ratioP1;P1;durP2;ratioP2;P2;SDS_P1;SDS_P2;PMS_P1;PMS_P2;Temp;Humidity;BMP_temperature;BMP_pressure;BME280_temperature;BME280_humidity;BME280_pressure;Samples;Min_cycle;Max_cycle;Signal;HPM_P1;HPM_P2
2022/11/22 00:00:19;;;;;;;35.60;15.80;;;;;;;;;;106754;1287;22091;-82
2022/11/22 00:03:06;;;;;;;37.70;16.10;;;;;;;;;;106509;1313;22073;-82
2022/11/22 00:05:34;;;;;;;39.00;16.30;;;;;;;;;;106500;1313;22264;-82
2022/11/22 00:08:01;;;;;;;35.40;15.10;;;;;;;;;;106291;1314;22118;-82
2022/11/22 00:10:30;;;;;;;36.90;16.50;;;;;;;;;;106289;1314;22082;-81
2022/11/22 00:13:00;;;;;;;37.90;15.10;;;;;;;;;;106080;1314;22070;-82
2022/11/22 00:15:28;;;;;;;36.80;15.70;;;;;;;;;;106617;1303;22872;-83
2022/11/22 00:17:58;;;;;;;38.30;17.50;;;;;;;;;;106234;1313;22165;-82
2022/11/22 00:20:26;;;;;;;43.70;17.40;;;;;;;;;;106594;1306;22055;-83
2022/11/22 00:22:57;;;;;;;35.10;15.90;;;;;;;;;;106266;1313;22059;-81
2022/11/22 00:25:26;;;;;;;42.10;17.60;;;;;;;;;;106245;1314;22760;-83
2022/11/22 00:27:55;;;;;;;42.80;17.50;;;;;;;;;;106309;1313;22064;-83
2022/11/22 00:30:24;;;;;;;44.10;18.00;;;;;;;;;;106284;1313;22171;-83
2022/11/22 00:32:53;;;;;;;41.00;18.10;;;;;;;;;;106188;1308;22049;-82
2022/11/22 00:35:22;;;;;;;40.90;17.30;;;;;;;;;;106283;1314;22822;-82
2022/11/22 00:37:51;;;;;;;40.80;17.80;;;;;;;;;;106410;1302;22095;-82
2022/11/22 00:40:20;;;;;;;40.10;17.00;;;;;;;;;;106276;1312;22107;-82
2022/11/22 00:42:49;;;;;;;45.10;17.70;;;;;;;;;;106264;1307;22052;-81
2022/11/22 00:45:20;;;;;;;41.90;17.40;;;;;;;;;;106247;1313;22105;-83
2022/11/22 00:47:48;;;;;;;43.30;17.90;;;;;;;;;;106328;1298;22555;-83
2022/11/22 00:50:18;;;;;;;41.40;17.60;;;;;;;;;;106205;1314;22840;-82
2022/11/22 00:52:46;;;;;;;40.30;16.70;;;;;;;;;;106304;1313;22063;-83
2022/11/22 00:55:15;;;;;;;37.90;15.80;;;;;;;;;;106181;1313;22109;-83
2022/11/22 00:57:44;;;;;;;41.40;17.80;;;;;;;;;;106370;1308;22077;-83
2022/11/22 01:00:14;;;;;;;41.00;17.20;;;;;;;;;;106269;1313;22696;-82
2022/11/22 01:02:42;;;;;;;41.10;17.30;;;;;;;;;;106233;1308;22059;-82
2022/11/22 01:05:12;;;;;;;44.90;17.70;;;;;;;;;;106257;1313;22063;-83
2022/11/22 01:07:40;;;;;;;41.90;17.20;;;;;;;;;;106500;1312;22069;-82
2022/11/22 01:10:10;;;;;;;47.80;19.20;;;;;;;;;;106253;1310;22074;-82
2022/11/22 01:18:57;;;;;;;46.80;19.10;;;;;;;;;;100280;1342;547948;-85
2022/11/22 01:21:23;;;;;;;44.30;17.30;;;;;;;;;;103438;1309;25378;-83
2022/11/22 01:23:50;;;;;;;43.20;19.00;;;;;;;;;;103504;1303;25382;-85
2022/11/22 01:26:16;;;;;;;47.10;18.20;;;;;;;;;;103280;1309;24283;-85
2022/11/22 01:28:42;;;;;;;46.70;18.40;;;;;;;;;;103415;1302;22838;-87
2022/11/22 01:31:08;;;;;;;48.40;19.50;;;;;;;;;;102476;1285;1452898;-82
2022/11/22 01:33:34;;;;;;;44.00;17.50;;;;;;;;;;103540;1307;22484;-86
2022/11/22 01:36:00;;;;;;;42.90;16.50;;;;;;;;;;103418;1307;23830;-84
2022/11/22 01:38:26;;;;;;;44.80;16.40;;;;;;;;;;103293;1306;25342;-88
2022/11/22 01:40:52;;;;;;;41.20;16.00;;;;;;;;;;103465;1306;26504;-84
2022/11/22 01:43:20;;;;;;;37.80;15.70;;;;;;;;;;103513;1306;23235;-87
2022/11/22 01:45:47;;;;;;;41.70;16.30;;;;;;;;;;103494;1306;24246;-87
2022/11/22 01:48:49;;;;;;;40.10;15.90;;;;;;;;;;103861;1306;22460;-84
2022/11/22 01:51:23;;;;;;;41.60;15.50;;;;;;;;;;102639;1314;22762;-85
2022/11/22 01:53:51;;;;;;;35.30;15.20;;;;;;;;;;102745;1313;25312;-86
2022/11/22 01:56:18;;;;;;;36.80;14.00;;;;;;;;;;102565;1316;23859;-88
2022/11/22 01:58:46;;;;;;;35.20;14.10;;;;;;;;;;102584;1315;23834;-88
2022/11/22 02:01:12;;;;;;;34.50;14.50;;;;;;;;;;102935;1312;22617;-86
2022/11/22 02:03:39;;;;;;;34.90;13.80;;;;;;;;;;102720;1313;22614;-87
2022/11/22 02:06:05;;;;;;;39.60;14.60;;;;;;;;;;102680;1310;24360;-85
2022/11/22 02:08:39;;;;;;;36.00;13.50;;;;;;;;;;102800;1307;24317;-85
2022/11/22 02:11:05;;;;;;;36.30;13.00;;;;;;;;;;102836;1314;24456;-85
2022/11/22 02:13:33;;;;;;;31.40;12.40;;;;;;;;;;102780;1315;24279;-86
2022/11/22 02:15:59;;;;;;;31.80;12.30;;;;;;;;;;102842;1315;25322;-82
2022/11/22 02:18:26;;;;;;;30.80;12.10;;;;;;;;;;102798;1312;22478;-84
2022/11/22 02:20:53;;;;;;;28.30;11.80;;;;;;;;;;102444;1314;22486;-90
2022/11/22 02:23:33;;;;;;;29.70;10.90;;;;;;;;;;102642;1313;22556;-85
2022/11/22 02:26:00;;;;;;;33.40;12.10;;;;;;;;;;103234;1307;24314;-84
2022/11/22 02:28:28;;;;;;;30.70;11.60;;;;;;;;;;103304;1301;23166;-88
2022/11/22 02:30:54;;;;;;;32.60;11.90;;;;;;;;;;103255;1307;22465;-89
2022/11/22 02:33:20;;;;;;;32.80;13.30;;;;;;;;;;103897;1307;22585;-83
2022/11/22 02:35:46;;;;;;;40.80;13.80;;;;;;;;;;103388;1307;24384;-85
2022/11/22 02:38:23;;;;;;;38.30;13.30;;;;;;;;;;103421;1307;22710;-85
2022/11/22 02:40:52;;;;;;;29.20;11.30;;;;;;;;;;103528;1294;22839;-85
2022/11/22 02:43:25;;;;;;;28.80;11.30;;;;;;;;;;103499;1307;24285;-88
2022/11/22 02:45:51;;;;;;;32.70;13.00;;;;;;;;;;103348;1295;22523;-88
2022/11/22 02:48:17;;;;;;;35.50;12.40;;;;;;;;;;103345;1297;22436;-85
2022/11/22 02:50:43;;;;;;;34.80;12.20;;;;;;;;;;103300;1306;22476;-87
2022/11/22 02:53:10;;;;;;;35.10;11.50;;;;;;;;;;103299;1309;22611;-83
2022/11/22 02:55:37;;;;;;;31.20;11.20;;;;;;;;;;103514;1290;22465;-91
2022/11/22 02:58:04;;;;;;;25.90;10.80;;;;;;;;;;103594;1305;24190;-83
2022/11/22 03:00:31;;;;;;;32.50;12.00;;;;;;;;;;103464;1307;22597;-84
2022/11/22 03:02:57;;;;;;;31.80;12.80;;;;;;;;;;106944;1299;22094;-83
2022/11/22 03:05:23;;;;;;;29.50;12.40;;;;;;;;;;106974;1294;22104;-82
2022/11/22 03:07:49;;;;;;;27.10;11.30;;;;;;;;;;106916;1301;22859;-82
2022/11/22 03:10:15;;;;;;;28.40;10.60;;;;;;;;;;107014;1305;22212;-82
2022/11/22 03:12:41;;;;;;;27.70;11.10;;;;;;;;;;106892;1306;22479;-82
2022/11/22 03:15:08;;;;;;;35.40;12.70;;;;;;;;;;106987;1307;22088;-83
2022/11/22 03:17:34;;;;;;;30.70;12.00;;;;;;;;;;106918;1298;22069;-82
2022/11/22 03:20:00;;;;;;;31.80;12.40;;;;;;;;;;106842;1307;22144;-83
2022/11/22 03:22:26;;;;;;;32.70;12.40;;;;;;;;;;106945;1306;22763;-82
2022/11/22 03:24:51;;;;;;;32.30;12.40;;;;;;;;;;106747;1306;22077;-80
2022/11/22 03:27:19;;;;;;;31.50;11.40;;;;;;;;;;106941;1306;22861;-82
2022/11/22 03:29:45;;;;;;;28.10;11.30;;;;;;;;;;106772;1303;22088;-82
2022/11/22 03:32:11;;;;;;;26.00;11.00;;;;;;;;;;107004;1300;22358;-82
2022/11/22 03:34:37;;;;;;;25.70;10.70;;;;;;;;;;106908;1307;22795;-80
2022/11/22 03:37:03;;;;;;;25.60;10.10;;;;;;;;;;106928;1306;21829;-82
2022/11/22 03:39:29;;;;;;;24.50;8.70;;;;;;;;;;106788;1307;22087;-82
2022/11/22 03:41:55;;;;;;;26.70;10.00;;;;;;;;;;106942;1298;22123;-82
2022/11/22 03:44:21;;;;;;;24.50;10.10;;;;;;;;;;106771;1306;22118;-82
2022/11/22 03:46:47;;;;;;;25.00;10.50;;;;;;;;;;106873;1306;22034;-82
2022/11/22 03:49:13;;;;;;;27.90;10.90;;;;;;;;;;106934;1306;22769;-82
2022/11/22 03:51:39;;;;;;;25.60;10.40;;;;;;;;;;106773;1307;21956;-82
2022/11/22 03:54:05;;;;;;;20.40;8.70;;;;;;;;;;106900;1306;22074;-82
2022/11/22 03:56:31;;;;;;;22.00;9.50;;;;;;;;;;106914;1301;22127;-82
2022/11/22 03:58:57;;;;;;;22.70;9.70;;;;;;;;;;106894;1307;22062;-82
2022/11/22 04:01:23;;;;;;;27.00;10.10;;;;;;;;;;107015;1304;22281;-83
2022/11/22 04:03:49;;;;;;;28.60;9.90;;;;;;;;;;106917;1307;22054;-82
2022/11/22 04:06:15;;;;;;;29.10;11.90;;;;;;;;;;107041;1305;23066;-82
2022/11/22 04:08:41;;;;;;;29.10;10.80;;;;;;;;;;106942;1306;22805;-82
2022/11/22 04:11:07;;;;;;;31.90;13.00;;;;;;;;;;106896;1304;22058;-82
2022/11/22 04:16:17;;;;;;;28.60;11.40;;;;;;;;;;106807;1305;22397;-81
2022/11/22 04:18:43;;;;;;;26.40;10.80;;;;;;;;;;106879;1306;22070;-82
2022/11/22 04:26:39;;;;;;;27.60;11.40;;;;;;;;;;106934;1307;21796;-82
2022/11/22 04:29:05;;;;;;;25.90;10.00;;;;;;;;;;106794;1307;22118;-83
2022/11/22 04:34:15;;;;;;;23.80;9.30;;;;;;;;;;106968;1306;22142;-83
2022/11/22 04:36:41;;;;;;;21.40;9.00;;;;;;;;;;106980;1307;22151;-83
2022/11/22 04:39:07;;;;;;;21.30;9.30;;;;;;;;;;106954;1291;22794;-83
2022/11/22 04:41:33;;;;;;;24.20;9.10;;;;;;;;;;106867;1301;22123;-83
2022/11/22 04:46:44;;;;;;;28.60;10.70;;;;;;;;;;107115;1298;22077;-83
2022/11/22 04:49:10;;;;;;;25.10;10.90;;;;;;;;;;106896;1306;22028;-83
2022/11/22 04:54:20;;;;;;;25.90;11.10;;;;;;;;;;106925;1301;22367;-82
2022/11/22 04:56:46;;;;;;;23.60;10.00;;;;;;;;;;106679;1304;22069;-83
2022/11/22 04:59:12;;;;;;;22.20;9.10;;;;;;;;;;106911;1307;22986;-83
2022/11/22 05:01:38;;;;;;;23.90;9.40;;;;;;;;;;106737;1306;22298;-82
2022/11/22 05:04:04;;;;;;;21.60;8.20;;;;;;;;;;106782;1306;22773;-81
2022/11/22 05:06:30;;;;;;;21.10;8.70;;;;;;;;;;106866;1284;22010;-82
2022/11/22 05:08:56;;;;;;;23.40;8.40;;;;;;;;;;106904;1306;21970;-81
2022/11/22 05:11:22;;;;;;;25.20;10.30;;;;;;;;;;106894;1306;22719;-82
2022/11/22 05:13:48;;;;;;;23.10;9.60;;;;;;;;;;106740;1305;22059;-82
2022/11/22 05:16:14;;;;;;;24.10;9.60;;;;;;;;;;106752;1307;23285;-82
2022/11/22 05:18:40;;;;;;;28.10;10.30;;;;;;;;;;106859;1307;22262;-82
2022/11/22 05:21:11;;;;;;;27.40;10.40;;;;;;;;;;106725;1306;22665;-82
2022/11/22 05:23:53;;;;;;;25.00;9.00;;;;;;;;;;106753;1306;22721;-83
2022/11/22 05:26:20;;;;;;;21.40;8.80;;;;;;;;;;106790;1306;23062;-82
2022/11/22 05:28:46;;;;;;;24.10;7.70;;;;;;;;;;106850;1306;22096;-82
2022/11/22 05:31:16;;;;;;;21.10;8.50;;;;;;;;;;106954;1306;22080;-82
2022/11/22 05:33:44;;;;;;;20.50;8.10;;;;;;;;;;106858;1306;22059;-82
2022/11/22 05:36:10;;;;;;;21.30;8.50;;;;;;;;;;106856;1306;22043;-81
2022/11/22 05:38:37;;;;;;;20.00;8.10;;;;;;;;;;106730;1306;22106;-81
2022/11/22 05:41:04;;;;;;;25.30;8.20;;;;;;;;;;106875;1306;22103;-82
2022/11/22 05:43:30;;;;;;;19.80;8.40;;;;;;;;;;106724;1307;22947;-81
2022/11/22 05:46:03;;;;;;;21.70;8.40;;;;;;;;;;106763;1301;22038;-81
2022/11/22 05:48:29;;;;;;;23.20;8.80;;;;;;;;;;106872;1302;22079;-82
2022/11/22 05:50:55;;;;;;;23.00;8.90;;;;;;;;;;106743;1305;22041;-81
2022/11/22 05:53:21;;;;;;;21.80;9.10;;;;;;;;;;106811;1307;22106;-81
2022/11/22 05:55:46;;;;;;;23.30;8.50;;;;;;;;;;106716;1307;22403;-81
2022/11/22 05:58:13;;;;;;;21.20;8.90;;;;;;;;;;106769;1307;22123;-81
2022/11/22 06:00:39;;;;;;;21.70;8.50;;;;;;;;;;106785;1307;22882;-81
2022/11/22 06:03:05;;;;;;;20.00;7.70;;;;;;;;;;106772;1307;22028;-82
2022/11/22 06:05:31;;;;;;;22.10;8.90;;;;;;;;;;106741;1307;22117;-81
2022/11/22 06:07:58;;;;;;;24.80;8.60;;;;;;;;;;106799;1301;22107;-81
2022/11/22 06:10:25;;;;;;;23.90;8.60;;;;;;;;;;106777;1306;22130;-82
2022/11/22 06:12:51;;;;;;;23.80;9.00;;;;;;;;;;106713;1307;22124;-81
2022/11/22 06:15:17;;;;;;;24.40;10.70;;;;;;;;;;106666;1307;22126;-82
2022/11/22 06:17:43;;;;;;;25.10;10.50;;;;;;;;;;106691;1309;22093;-81
2022/11/22 06:20:09;;;;;;;22.70;9.40;;;;;;;;;;106857;1308;22925;-81
2022/11/22 06:22:35;;;;;;;23.00;9.70;;;;;;;;;;106818;1309;22147;-82
2022/11/22 06:25:01;;;;;;;25.50;10.80;;;;;;;;;;106744;1309;21979;-81
2022/11/22 06:27:27;;;;;;;34.20;13.30;;;;;;;;;;106673;1310;22050;-81
2022/11/22 06:29:53;;;;;;;46.60;13.30;;;;;;;;;;106688;1310;22125;-82
2022/11/22 06:32:19;;;;;;;32.20;11.70;;;;;;;;;;106728;1309;22834;-82
2022/11/22 06:34:45;;;;;;;28.60;11.40;;;;;;;;;;106735;1308;22064;-81
2022/11/22 06:37:13;;;;;;;31.10;12.10;;;;;;;;;;106719;1307;22010;-81
2022/11/22 06:39:39;;;;;;;30.50;12.20;;;;;;;;;;106699;1309;22124;-81
2022/11/22 06:42:05;;;;;;;31.50;11.60;;;;;;;;;;106646;1309;22769;-82
2022/11/22 06:44:31;;;;;;;23.20;10.10;;;;;;;;;;106676;1309;22705;-79
2022/11/22 06:46:57;;;;;;;23.60;8.70;;;;;;;;;;106632;1310;21973;-79
2022/11/22 06:49:23;;;;;;;24.00;10.30;;;;;;;;;;106640;1310;22096;-80
2022/11/22 06:51:49;;;;;;;24.90;9.20;;;;;;;;;;106664;1310;22045;-79
2022/11/22 06:54:14;;;;;;;31.20;11.40;;;;;;;;;;106629;1307;23004;-80
2022/11/22 06:56:40;;;;;;;34.90;12.50;;;;;;;;;;106707;1308;22114;-79
2022/11/22 06:59:07;;;;;;;35.10;13.30;;;;;;;;;;106781;1309;22107;-79
2022/11/22 07:01:34;;;;;;;30.70;11.50;;;;;;;;;;106686;1309;22018;-79
2022/11/22 07:04:00;;;;;;;30.30;11.70;;;;;;;;;;106790;1307;22914;-80
2022/11/22 07:06:30;;;;;;;29.30;10.90;;;;;;;;;;106807;1307;22044;-79
2022/11/22 07:08:58;;;;;;;34.60;12.20;;;;;;;;;;106724;1309;22072;-80
2022/11/22 07:11:25;;;;;;;32.40;12.80;;;;;;;;;;106709;1305;22077;-79
2022/11/22 07:13:51;;;;;;;36.00;13.20;;;;;;;;;;106628;1310;22061;-80
2022/11/22 07:16:18;;;;;;;45.50;13.80;;;;;;;;;;106636;1309;22119;-81
2022/11/22 07:18:45;;;;;;;31.30;12.20;;;;;;;;;;106689;1304;21853;-80
2022/11/22 07:21:15;;;;;;;32.80;12.80;;;;;;;;;;106711;1309;22076;-81
2022/11/22 07:23:42;;;;;;;32.70;13.00;;;;;;;;;;106639;1304;22849;-80
2022/11/22 07:26:08;;;;;;;32.20;11.90;;;;;;;;;;106706;1309;22800;-80
2022/11/22 07:28:34;;;;;;;31.70;12.00;;;;;;;;;;106579;1310;22097;-80
2022/11/22 07:31:01;;;;;;;34.60;13.50;;;;;;;;;;106645;1310;22101;-81
2022/11/22 07:33:27;;;;;;;36.80;14.00;;;;;;;;;;106633;1304;22081;-80
2022/11/22 07:35:54;;;;;;;38.00;13.60;;;;;;;;;;106655;1310;22021;-81
2022/11/22 07:38:20;;;;;;;33.60;13.40;;;;;;;;;;106687;1310;23050;-80
2022/11/22 07:40:45;;;;;;;29.40;12.00;;;;;;;;;;106602;1310;22152;-80
2022/11/22 07:43:11;;;;;;;29.80;12.30;;;;;;;;;;106658;1310;22068;-80
2022/11/22 07:45:37;;;;;;;28.80;11.90;;;;;;;;;;106629;1304;22077;-81
2022/11/22 07:48:03;;;;;;;30.40;13.10;;;;;;;;;;106617;1310;22060;-81
2022/11/22 07:50:30;;;;;;;32.20;13.10;;;;;;;;;;106734;1310;22148;-80
2022/11/22 07:52:56;;;;;;;27.40;11.00;;;;;;;;;;106737;1309;22585;-81
2022/11/22 07:55:24;;;;;;;30.60;11.10;;;;;;;;;;106600;1310;22081;-81
2022/11/22 07:57:51;;;;;;;30.80;11.30;;;;;;;;;;106705;1309;22776;-81
2022/11/22 08:00:17;;;;;;;32.50;11.90;;;;;;;;;;106615;1311;22131;-81
2022/11/22 08:02:43;;;;;;;30.90;12.20;;;;;;;;;;106659;1310;21976;-81
2022/11/22 08:05:09;;;;;;;28.90;11.90;;;;;;;;;;106693;1309;23012;-81
2022/11/22 08:07:36;;;;;;;26.80;11.20;;;;;;;;;;106691;1309;22499;-81
2022/11/22 08:10:02;;;;;;;25.40;11.10;;;;;;;;;;106733;1295;22080;-81
2022/11/22 08:12:29;;;;;;;28.90;13.40;;;;;;;;;;106604;1309;22356;-81
2022/11/22 08:14:56;;;;;;;27.50;11.40;;;;;;;;;;106694;1309;22106;-80
2022/11/22 08:17:22;;;;;;;29.40;11.10;;;;;;;;;;106598;1309;22055;-81
2022/11/22 08:19:52;;;;;;;27.50;11.20;;;;;;;;;;106543;1307;22066;-81
2022/11/22 08:22:19;;;;;;;29.40;10.50;;;;;;;;;;106623;1305;22056;-81
2022/11/22 08:24:46;;;;;;;27.20;9.90;;;;;;;;;;106696;1310;22783;-81
2022/11/22 08:27:13;;;;;;;25.70;11.80;;;;;;;;;;106652;1303;21970;-81
2022/11/22 08:29:39;;;;;;;30.00;11.40;;;;;;;;;;106597;1308;21975;-81
2022/11/22 08:32:05;;;;;;;50.50;27.20;;;;;;;;;;106667;1304;22059;-81
2022/11/22 08:34:32;;;;;;;30.90;13.70;;;;;;;;;;106693;1309;22100;-80
2022/11/22 08:36:58;;;;;;;29.90;12.00;;;;;;;;;;106708;1310;22074;-80
2022/11/22 08:39:25;;;;;;;28.60;13.30;;;;;;;;;;106630;1310;22183;-81
2022/11/22 08:41:51;;;;;;;37.30;14.40;;;;;;;;;;106655;1310;22093;-81
2022/11/22 08:44:18;;;;;;;37.70;14.70;;;;;;;;;;106633;1310;22052;-82
2022/11/22 08:46:44;;;;;;;46.20;17.80;;;;;;;;;;106525;1309;22747;-82
2022/11/22 08:49:12;;;;;;;44.20;17.20;;;;;;;;;;106705;1309;22777;-82
2022/11/22 08:51:43;;;;;;;47.90;18.30;;;;;;;;;;106639;1297;22063;-81
2022/11/22 08:54:11;;;;;;;43.20;17.20;;;;;;;;;;106708;1310;22777;-83
2022/11/22 08:56:38;;;;;;;35.40;13.70;;;;;;;;;;106638;1309;22212;-83
2022/11/22 08:59:04;;;;;;;33.50;13.40;;;;;;;;;;106543;1310;22096;-83
2022/11/22 09:01:31;;;;;;;35.90;14.60;;;;;;;;;;106663;1310;22065;-83
2022/11/22 09:03:59;;;;;;;35.50;15.50;;;;;;;;;;106670;1305;22116;-82
2022/11/22 09:06:26;;;;;;;37.20;14.40;;;;;;;;;;106538;1313;22395;-82
2022/11/22 09:08:52;;;;;;;37.80;14.40;;;;;;;;;;106693;1310;22191;-83
2022/11/22 09:11:20;;;;;;;35.20;14.60;;;;;;;;;;106687;1310;22071;-83
2022/11/22 09:13:49;;;;;;;30.90;12.90;;;;;;;;;;106644;1310;22054;-82
2022/11/22 09:16:18;;;;;;;27.30;11.70;;;;;;;;;;106615;1310;22039;-82
2022/11/22 09:18:47;;;;;;;32.10;13.60;;;;;;;;;;106603;1312;21973;-82
2022/11/22 09:21:18;;;;;;;37.10;15.30;;;;;;;;;;106815;1309;22063;-82
2022/11/22 09:23:47;;;;;;;41.90;16.30;;;;;;;;;;106697;1309;22745;-82
2022/11/22 09:26:17;;;;;;;46.10;16.90;;;;;;;;;;106581;1309;22095;-83
2022/11/22 09:28:45;;;;;;;44.60;16.40;;;;;;;;;;106642;1310;22117;-83
2022/11/22 09:31:15;;;;;;;48.50;18.00;;;;;;;;;;106616;1312;22051;-83
2022/11/22 09:33:44;;;;;;;51.40;19.60;;;;;;;;;;106621;1310;22049;-83
2022/11/22 09:36:16;;;;;;;36.90;16.80;;;;;;;;;;106640;1311;21964;-82
2022/11/22 09:38:45;;;;;;;34.80;13.90;;;;;;;;;;106660;1309;22797;-83
2022/11/22 09:41:27;;;;;;;34.80;13.90;;;;;;;;;;106628;1309;22187;-83
2022/11/22 09:44:15;;;;;;;31.60;13.50;;;;;;;;;;106622;1312;22073;-82
2022/11/22 09:46:56;;;;;;;28.30;13.00;;;;;;;;;;106683;1309;22096;-82
2022/11/22 09:49:53;;;;;;;34.70;14.80;;;;;;;;;;106556;1310;22716;-83
2022/11/22 09:52:30;;;;;;;32.70;14.90;;;;;;;;;;106176;1310;22384;-82
2022/11/22 09:55:10;;;;;;;32.90;14.90;;;;;;;;;;106016;1315;22115;-82
2022/11/22 09:57:42;;;;;;;54.90;25.30;;;;;;;;;;105955;1311;22174;-82
2022/11/22 10:00:30;;;;;;;37.80;15.50;;;;;;;;;;106082;1316;22131;-81
2022/11/22 10:03:14;;;;;;;32.70;14.90;;;;;;;;;;106115;1315;22103;-82
2022/11/22 10:05:48;;;;;;;30.40;13.80;;;;;;;;;;106313;1307;22180;-81
2022/11/22 10:08:24;;;;;;;28.70;13.10;;;;;;;;;;106136;1315;21976;-81
2022/11/22 10:19:40;;;;;;;38.40;16.80;;;;;;;;;;100458;1341;544698;-87
2022/11/22 10:22:10;;;;;;;46.20;17.90;;;;;;;;;;102571;1312;24581;-84
2022/11/22 10:24:36;;;;;;;38.90;17.20;;;;;;;;;;102526;1317;24192;-84
2022/11/22 10:27:08;;;;;;;49.20;24.50;;;;;;;;;;102658;1318;22433;-81
2022/11/22 10:29:41;;;;;;;57.20;29.90;;;;;;;;;;102454;1313;24335;-83
2022/11/22 10:32:15;;;;;;;42.30;21.00;;;;;;;;;;101555;1316;1374406;-82
2022/11/22 10:35:12;;;;;;;40.30;17.30;;;;;;;;;;102588;1316;22474;-85
2022/11/22 10:37:50;;;;;;;38.00;16.20;;;;;;;;;;102073;1322;22486;-80
2022/11/22 10:40:17;;;;;;;41.10;16.80;;;;;;;;;;102364;1322;22748;-83
2022/11/22 10:43:02;;;;;;;39.10;16.70;;;;;;;;;;102271;1322;22736;-83
2022/11/22 10:45:39;;;;;;;41.60;16.00;;;;;;;;;;102680;1319;25248;-85
2022/11/22 10:48:15;;;;;;;51.70;20.40;;;;;;;;;;102531;1311;22764;-83
2022/11/22 10:50:56;;;;;;;60.60;25.80;;;;;;;;;;103177;1319;25229;-79
2022/11/22 10:53:23;;;;;;;59.70;23.70;;;;;;;;;;102619;1318;22936;-82
2022/11/22 10:56:10;;;;;;;65.20;29.70;;;;;;;;;;102428;1319;22485;-82
2022/11/22 10:58:37;;;;;;;47.10;21.60;;;;;;;;;;102451;1318;22488;-82
2022/11/22 11:01:09;;;;;;;43.10;17.90;;;;;;;;;;102611;1317;25385;-82
2022/11/22 11:03:38;;;;;;;42.30;17.00;;;;;;;;;;102683;1319;24375;-82
2022/11/22 11:06:25;;;;;;;47.20;18.10;;;;;;;;;;102510;1311;22502;-84
2022/11/22 11:09:00;;;;;;;47.30;17.90;;;;;;;;;;102796;1317;22482;-82
2022/11/22 11:11:27;;;;;;;46.40;17.40;;;;;;;;;;102148;1319;22487;-83
2022/11/22 11:14:00;;;;;;;43.20;20.50;;;;;;;;;;102491;1316;22488;-81
2022/11/22 11:16:29;;;;;;;40.40;18.60;;;;;;;;;;102952;1316;22483;-84
2022/11/22 11:18:59;;;;;;;44.60;18.60;;;;;;;;;;102848;1316;22479;-83
2022/11/22 11:21:26;;;;;;;36.00;16.60;;;;;;;;;;102989;1307;22714;-85
2022/11/22 11:23:52;;;;;;;32.10;15.90;;;;;;;;;;102944;1313;23894;-83
2022/11/22 11:26:25;;;;;;;35.10;16.30;;;;;;;;;;102983;1313;22488;-82
2022/11/22 11:29:11;;;;;;;35.80;15.40;;;;;;;;;;102926;1292;23865;-87
2022/11/22 11:31:45;;;;;;;34.00;14.20;;;;;;;;;;102945;1313;25260;-85
2022/11/22 11:34:20;;;;;;;30.70;14.30;;;;;;;;;;103533;1301;24427;-82
2022/11/22 11:36:47;;;;;;;32.30;15.40;;;;;;;;;;104199;1306;25262;-83
2022/11/22 11:39:21;;;;;;;29.30;13.80;;;;;;;;;;103525;1306;23849;-82
2022/11/22 11:41:47;;;;;;;32.00;13.90;;;;;;;;;;103482;1297;25331;-84
2022/11/22 11:44:25;;;;;;;30.10;13.90;;;;;;;;;;103520;1307;24380;-83
2022/11/22 11:46:52;;;;;;;27.20;13.60;;;;;;;;;;103531;1306;22586;-85
2022/11/22 11:49:24;;;;;;;28.10;13.00;;;;;;;;;;103584;1307;23851;-82
2022/11/22 11:51:55;;;;;;;28.90;14.10;;;;;;;;;;103535;1306;22593;-86
2022/11/22 11:54:25;;;;;;;26.80;12.70;;;;;;;;;;103505;1306;25290;-85
2022/11/22 11:56:54;;;;;;;30.40;14.00;;;;;;;;;;103494;1306;24427;-87
2022/11/22 11:59:22;;;;;;;30.50;13.60;;;;;;;;;;103567;1288;24479;-83
2022/11/22 12:01:55;;;;;;;27.40;13.90;;;;;;;;;;103563;1300;24922;-81
2022/11/22 12:04:34;;;;;;;30.50;14.00;;;;;;;;;;103420;1306;22521;-83
2022/11/22 12:07:02;;;;;;;26.80;13.30;;;;;;;;;;103559;1298;22474;-85
2022/11/22 12:09:34;;;;;;;28.10;13.60;;;;;;;;;;103567;1307;24178;-85
2022/11/22 12:12:06;;;;;;;31.10;13.20;;;;;;;;;;103561;1306;22618;-85
2022/11/22 12:14:33;;;;;;;29.50;13.80;;;;;;;;;;103615;1301;24406;-83
2022/11/22 12:17:04;;;;;;;30.70;14.20;;;;;;;;;;103524;1306;22856;-83
2022/11/22 12:19:35;;;;;;;34.00;14.70;;;;;;;;;;103546;1306;25270;-81
2022/11/22 12:22:13;;;;;;;29.10;14.40;;;;;;;;;;104343;1305;25302;-81
2022/11/22 12:24:49;;;;;;;29.50;14.50;;;;;;;;;;103501;1306;24554;-87
2022/11/22 12:27:16;;;;;;;31.30;14.30;;;;;;;;;;103626;1307;22470;-84
2022/11/22 12:29:43;;;;;;;31.10;13.90;;;;;;;;;;103543;1298;22474;-84
2022/11/22 12:32:30;;;;;;;29.50;14.50;;;;;;;;;;103563;1306;24238;-84
2022/11/22 12:34:59;;;;;;;29.90;14.00;;;;;;;;;;103584;1306;22419;-81
2022/11/22 12:37:25;;;;;;;28.80;13.10;;;;;;;;;;103501;1306;24238;-83
2022/11/22 12:39:54;;;;;;;30.00;14.10;;;;;;;;;;103543;1306;22595;-83
2022/11/22 12:42:26;;;;;;;31.00;14.90;;;;;;;;;;103703;1300;24321;-82
2022/11/22 12:44:57;;;;;;;30.70;14.50;;;;;;;;;;103573;1285;22472;-81
2022/11/22 12:47:27;;;;;;;30.90;13.60;;;;;;;;;;103712;1284;22870;-82
2022/11/22 12:50:08;;;;;;;33.80;13.90;;;;;;;;;;103238;1307;25512;-82
2022/11/22 12:52:41;;;;;;;31.10;14.20;;;;;;;;;;103530;1301;25211;-81
2022/11/22 12:55:08;;;;;;;30.60;13.50;;;;;;;;;;103431;1287;25316;-83
2022/11/22 12:57:39;;;;;;;30.00;13.80;;;;;;;;;;103533;1285;22496;-82
2022/11/22 13:00:17;;;;;;;30.30;13.60;;;;;;;;;;103646;1278;24756;-83
2022/11/22 13:03:02;;;;;;;29.80;12.80;;;;;;;;;;103553;1277;22458;-81
2022/11/22 13:05:49;;;;;;;29.50;12.70;;;;;;;;;;104305;1289;22510;-80
2022/11/22 13:08:22;;;;;;;29.70;13.10;;;;;;;;;;103846;1281;22489;-82
2022/11/22 13:10:56;;;;;;;33.40;14.90;;;;;;;;;;103616;1281;25549;-81
2022/11/22 13:13:25;;;;;;;34.40;15.10;;;;;;;;;;103684;1284;25245;-81
2022/11/22 13:15:54;;;;;;;30.60;14.90;;;;;;;;;;103722;1284;22486;-82
2022/11/22 13:18:24;;;;;;;32.90;14.40;;;;;;;;;;103438;1306;23175;-84
2022/11/22 13:21:10;;;;;;;31.50;14.20;;;;;;;;;;103526;1306;22478;-81
2022/11/22 13:23:37;;;;;;;31.30;13.80;;;;;;;;;;103563;1306;24321;-84
2022/11/22 13:26:22;;;;;;;34.50;13.50;;;;;;;;;;103559;1307;21796;-82
2022/11/22 13:28:50;;;;;;;32.80;13.40;;;;;;;;;;103608;1291;22517;-81
2022/11/22 13:31:18;;;;;;;32.00;14.10;;;;;;;;;;103460;1306;23845;-81
2022/11/22 13:33:53;;;;;;;37.10;14.70;;;;;;;;;;103513;1306;24519;-82
2022/11/22 13:36:33;;;;;;;31.10;14.00;;;;;;;;;;103378;1302;25361;-84
2022/11/22 13:39:20;;;;;;;34.20;14.40;;;;;;;;;;107126;1299;22072;-79
2022/11/22 13:41:46;;;;;;;32.30;14.70;;;;;;;;;;106858;1306;22790;-79
2022/11/22 13:44:16;;;;;;;35.10;16.60;;;;;;;;;;106946;1306;22792;-80
2022/11/22 13:46:49;;;;;;;40.30;16.60;;;;;;;;;;106985;1306;22847;-79
2022/11/22 13:49:33;;;;;;;33.40;15.00;;;;;;;;;;106935;1306;22055;-79
2022/11/22 13:52:00;;;;;;;33.40;14.90;;;;;;;;;;107019;1303;21696;-79
2022/11/22 13:54:36;;;;;;;34.90;15.50;;;;;;;;;;106860;1306;22338;-80
2022/11/22 13:57:04;;;;;;;38.70;15.90;;;;;;;;;;106854;1306;22849;-79
2022/11/22 13:59:31;;;;;;;36.20;15.20;;;;;;;;;;106742;1306;22662;-79
2022/11/22 14:01:59;;;;;;;41.80;16.70;;;;;;;;;;106863;1306;22741;-80
2022/11/22 14:04:27;;;;;;;37.20;15.50;;;;;;;;;;106887;1306;22732;-79
2022/11/22 14:07:06;;;;;;;35.10;16.40;;;;;;;;;;106897;1306;22074;-80
2022/11/22 14:09:35;;;;;;;35.10;15.60;;;;;;;;;;106998;1305;22877;-79
2022/11/22 14:12:11;;;;;;;39.00;16.00;;;;;;;;;;106904;1306;21966;-79
2022/11/22 14:14:57;;;;;;;33.70;15.60;;;;;;;;;;106844;1307;22110;-79
2022/11/22 14:17:46;;;;;;;37.90;16.40;;;;;;;;;;106836;1307;22080;-79
2022/11/22 14:20:32;;;;;;;33.70;15.60;;;;;;;;;;106827;1307;22817;-80
2022/11/22 14:23:21;;;;;;;34.10;16.90;;;;;;;;;;107089;1294;22085;-79
2022/11/22 14:25:57;;;;;;;38.60;18.00;;;;;;;;;;106915;1301;22073;-79
2022/11/22 14:28:30;;;;;;;37.30;17.10;;;;;;;;;;106948;1306;22117;-80
2022/11/22 14:30:57;;;;;;;40.90;17.20;;;;;;;;;;106964;1306;22042;-80
2022/11/22 14:33:27;;;;;;;37.00;17.20;;;;;;;;;;106892;1299;22097;-79
2022/11/22 14:35:53;;;;;;;39.30;17.50;;;;;;;;;;106799;1298;22070;-80
2022/11/22 14:38:23;;;;;;;37.90;17.40;;;;;;;;;;106973;1306;22074;-80
2022/11/22 14:40:50;;;;;;;35.80;17.60;;;;;;;;;;106854;1306;22693;-79
2022/11/22 14:43:26;;;;;;;37.20;17.80;;;;;;;;;;106907;1306;21932;-80
2022/11/22 14:46:14;;;;;;;37.80;16.80;;;;;;;;;;106784;1306;22078;-79
2022/11/22 14:48:47;;;;;;;36.20;17.10;;;;;;;;;;106807;1306;22077;-80
2022/11/22 14:51:23;;;;;;;41.70;18.90;;;;;;;;;;106946;1306;22124;-80